Terminal Aerodrome Forecast
Issued by NWS North Platte, NE

Home | Current Version | Previous Version | Graphics & Text | Print | Product List | Glossary On
Versions: 1 2 3 4 5 6 7 8 9 10 11 12 13 14 15 16 17 18
000
FTUS43 KLBF 241100
TAFVTN
TAF
KVTN 241120Z 2412/2512 18012KT P6SM BKN150
     FM241800 19012KT P6SM BKN200
     FM242100 VRB17G28KT 4SM TSRA SCT025 OVC050CB
      TEMPO 2422/2502 2SM +TSRA BKN025CB=

USA.gov is the U.S. government's official web portal to all federal, state and local government web resources and services.